Wetterdaten: Woche 18.04.11 - 24.04.11 (KW16)
Datum Zeit Temp. A. Feuchte A. Luftdruck Regen Wind Richtung Taupunkt Windchill Windben
18.04.2011 00:00 6,8 C 67 % 1024,2 hPa 0,0 l/m 0,0 km/h N 1,1 C 6,8 C 1,2 km/h
18.04.2011 01:00 6,1 C 71 % 1024,1 hPa 0,0 l/m 0,0 km/h N 1,2 C 6,1 C 1,2 km/h
18.04.2011 02:00 5,5 C 73 % 1023,7 hPa 0,0 l/m 0,0 km/h N 1,0 C 5,5 C 2,0 km/h
18.04.2011 03:00 5,1 C 74 % 1023,6 hPa 0,0 l/m 0,2 km/h N 0,9 C 5,1 C 2,8 km/h
18.04.2011 04:00 4,6 C 76 % 1023,7 hPa 0,0 l/m 0,1 km/h N 0,6 C 4,6 C 2,8 km/h
18.04.2011 05:00 4,0 C 77 % 1023,7 hPa 0,0 l/m 0,0 km/h N 0,4 C 4,0 C 2,4 km/h
18.04.2011 06:00 3,7 C 79 % 1023,8 hPa 0,0 l/m 0,1 km/h N 0,3 C 3,7 C 3,2 km/h
18.04.2011 07:00 4,1 C 79 % 1024,2 hPa 0,0 l/m 0,2 km/h N 0,8 C 4,1 C 3,6 km/h
18.04.2011 08:00 5,6 C 79 % 1024,4 hPa 0,0 l/m 0,1 km/h N 2,1 C 5,6 C 2,8 km/h
18.04.2011 09:00 9,3 C 65 % 1024,3 hPa 0,0 l/m 0,8 km/h NO 3,0 C 9,3 C 4,8 km/h
18.04.2011 10:00 14,3 C 50 % 1024,1 hPa 0,0 l/m 0,7 km/h O-NO 3,8 C 14,3 C 4,8 km/h
18.04.2011 11:00 16,1 C 48 % 1023,8 hPa 0,0 l/m 1,8 km/h O 5,1 C 16,1 C 5,2 km/h
18.04.2011 12:00 17,8 C 42 % 1023,1 hPa 0,0 l/m 1,7 km/h O 4,5 C 17,8 C 6,4 km/h
18.04.2011 13:00 19,0 C 38 % 1022,1 hPa 0,0 l/m 2,5 km/h O 4,1 C 19,0 C 7,6 km/h
18.04.2011 14:00 20,2 C 33 % 1021,3 hPa 0,0 l/m 2,7 km/h O 3,4 C 20,2 C 9,7 km/h
18.04.2011 15:00 19,8 C 34 % 1020,7 hPa 0,0 l/m 3,0 km/h O 3,3 C 19,8 C 11,6 km/h
18.04.2011 16:00 18,9 C 34 % 1020,2 hPa 0,0 l/m 2,8 km/h O-NO 2,7 C 18,9 C 8,9 km/h
18.04.2011 17:00 17,8 C 35 % 1019,6 hPa 0,0 l/m 3,7 km/h O 2,3 C 17,8 C 10,9 km/h
18.04.2011 18:00 17,5 C 34 % 1019,4 hPa 0,0 l/m 1,7 km/h O 1,4 C 17,5 C 5,6 km/h
18.04.2011 19:00 16,6 C 37 % 1019,3 hPa 0,0 l/m 0,2 km/h N 1,8 C 16,6 C 2,0 km/h
18.04.2011 20:00 13,9 C 47 % 1019,7 hPa 0,0 l/m 0,0 km/h N 2,8 C 13,9 C 0,0 km/h
18.04.2011 21:00 11,1 C 56 % 1019,8 hPa 0,0 l/m 0,0 km/h N 2,7 C 11,1 C 0,0 km/h
18.04.2011 22:00 9,0 C 63 % 1019,7 hPa 0,0 l/m 0,0 km/h N 2,3 C 9,0 C 0,0 km/h
18.04.2011 23:00 7,7 C 67 % 1019,8 hPa 0,0 l/m 0,0 km/h N 2,0 C 7,7 C 0,0 km/h
19.04.2011 00:00 7,2 C 69 % 1019,8 hPa 0,0 l/m 0,0 km/h N 1,8 C 7,2 C 0,8 km/h
19.04.2011 01:00 6,3 C 72 % 1019,6 hPa 0,0 l/m 0,0 km/h N 1,5 C 6,3 C 0,4 km/h
19.04.2011 02:00 5,4 C 76 % 1019,2 hPa 0,0 l/m 0,0 km/h N 1,4 C 5,4 C 0,8 km/h
19.04.2011 03:00 4,7 C 78 % 1019,1 hPa 0,0 l/m 0,0 km/h N 1,2 C 4,7 C 0,8 km/h
19.04.2011 04:00 4,4 C 80 % 1018,9 hPa 0,0 l/m 0,0 km/h N 1,2 C 4,4 C 2,4 km/h
19.04.2011 05:00 4,0 C 80 % 1019,0 hPa 0,0 l/m 0,0 km/h N 0,9 C 4,0 C 1,6 km/h
19.04.2011 06:00 3,7 C 82 % 1019,1 hPa 0,0 l/m 0,1 km/h N 0,8 C 3,7 C 2,4 km/h
19.04.2011 07:00 4,7 C 83 % 1019,4 hPa 0,0 l/m 0,0 km/h N 2,0 C 4,7 C 0,4 km/h
19.04.2011 08:00 7,4 C 80 % 1019,6 hPa 0,0 l/m 0,1 km/h N 4,2 C 7,4 C 1,6 km/h
19.04.2011 09:00 10,9 C 66 % 1019,5 hPa 0,0 l/m 0,3 km/h N 4,7 C 10,9 C 2,8 km/h
19.04.2011 10:00 15,1 C 52 % 1019,4 hPa 0,0 l/m 0,6 km/h N 5,3 C 15,1 C 2,8 km/h
19.04.2011 11:00 17,9 C 45 % 1019,0 hPa 0,0 l/m 1,3 km/h O 5,6 C 17,9 C 5,2 km/h
19.04.2011 12:00 19,8 C 36 % 1018,6 hPa 0,0 l/m 1,6 km/h NO 4,2 C 19,8 C 6,4 km/h
19.04.2011 13:00 20,7 C 35 % 1018,1 hPa 0,0 l/m 2,8 km/h N-NO 4,6 C 20,7 C 8,5 km/h
19.04.2011 14:00 21,6 C 33 % 1017,6 hPa 0,0 l/m 2,5 km/h N-NO 4,5 C 21,6 C 8,0 km/h
19.04.2011 15:00 22,0 C 31 % 1017,0 hPa 0,0 l/m 2,2 km/h N-NO 4,0 C 22,0 C 8,0 km/h
19.04.2011 16:00 21,7 C 31 % 1016,5 hPa 0,0 l/m 1,8 km/h O 3,6 C 21,7 C 6,8 km/h
19.04.2011 17:00 21,0 C 31 % 1016,3 hPa 0,0 l/m 1,2 km/h O 3,4 C 21,0 C 5,2 km/h
19.04.2011 18:00 20,5 C 32 % 1016,2 hPa 0,0 l/m 0,3 km/h N 3,2 C 20,5 C 2,8 km/h
19.04.2011 19:00 19,8 C 37 % 1015,9 hPa 0,0 l/m 0,1 km/h N 4,5 C 19,8 C 2,0 km/h
19.04.2011 20:00 16,2 C 45 % 1016,4 hPa 0,0 l/m 0,2 km/h N 4,1 C 16,2 C 2,8 km/h
19.04.2011 21:00 13,1 C 53 % 1016,7 hPa 0,0 l/m 0,0 km/h N 3,8 C 13,1 C 0,8 km/h
19.04.2011 22:00 11,5 C 60 % 1016,8 hPa 0,0 l/m 0,1 km/h N 4,1 C 11,5 C 2,4 km/h
19.04.2011 23:00 10,4 C 65 % 1017,0 hPa 0,0 l/m 0,0 km/h N 4,1 C 10,4 C 1,6 km/h
20.04.2011 00:00 9,6 C 69 % 1017,2 hPa 0,0 l/m 0,1 km/h N 4,2 C 9,6 C 2,0 km/h
20.04.2011 01:00 9,0 C 71 % 1017,2 hPa 0,0 l/m 0,1 km/h N 4,0 C 9,0 C 3,2 km/h
20.04.2011 02:00 8,6 C 72 % 1017,1 hPa 0,0 l/m 0,2 km/h N 3,9 C 8,6 C 3,2 km/h
20.04.2011 03:00 7,9 C 75 % 1017,3 hPa 0,0 l/m 0,2 km/h N 3,8 C 7,9 C 4,0 km/h
20.04.2011 04:00 7,3 C 77 % 1017,2 hPa 0,0 l/m 0,1 km/h N 3,6 C 7,3 C 2,4 km/h
20.04.2011 05:00 6,8 C 80 % 1017,3 hPa 0,0 l/m 0,2 km/h N 3,5 C 6,8 C 3,2 km/h
20.04.2011 06:00 6,4 C 81 % 1017,6 hPa 0,0 l/m 0,0 km/h N 3,4 C 6,4 C 2,0 km/h
20.04.2011 07:00 6,8 C 83 % 1018,2 hPa 0,0 l/m 0,1 km/h N 4,0 C 6,8 C 1,6 km/h
20.04.2011 08:00 9,1 C 81 % 1018,4 hPa 0,0 l/m 0,2 km/h N 6,0 C 9,1 C 2,4 km/h
20.04.2011 09:00 12,2 C 71 % 1018,7 hPa 0,0 l/m 1,1 km/h O-NO 7,0 C 12,2 C 4,8 km/h
20.04.2011 10:00 15,5 C 61 % 1018,6 hPa 0,0 l/m 1,2 km/h O-NO 8,0 C 15,5 C 4,8 km/h
20.04.2011 11:00 17,8 C 55 % 1018,4 hPa 0,0 l/m 2,2 km/h O-NO 8,6 C 17,8 C 6,4 km/h
20.04.2011 12:00 20,2 C 48 % 1018,0 hPa 0,0 l/m 1,8 km/h O-NO 8,8 C 20,2 C 7,2 km/h
20.04.2011 13:00 22,2 C 41 % 1017,4 hPa 0,0 l/m 2,1 km/h O 8,1 C 22,2 C 8,0 km/h
20.04.2011 14:00 23,6 C 37 % 1017,1 hPa 0,0 l/m 2,4 km/h O 7,9 C 23,6 C 8,9 km/h
20.04.2011 15:00 22,6 C 39 % 1016,7 hPa 0,0 l/m 3,6 km/h NO 8,0 C 22,6 C 10,5 km/h
20.04.2011 16:00 22,8 C 37 % 1016,2 hPa 0,0 l/m 2,8 km/h O 7,3 C 22,8 C 10,1 km/h
20.04.2011 17:00 22,7 C 36 % 1016,1 hPa 0,0 l/m 3,0 km/h O 6,8 C 22,7 C 9,3 km/h
20.04.2011 18:00 21,8 C 36 % 1016,1 hPa 0,0 l/m 3,1 km/h O-SO 6,1 C 21,8 C 9,3 km/h
20.04.2011 19:00 20,3 C 39 % 1016,2 hPa 0,0 l/m 1,1 km/h O-SO 5,9 C 20,3 C 5,6 km/h
20.04.2011 20:00 17,8 C 46 % 1016,4 hPa 0,0 l/m 0,0 km/h N 6,0 C 17,8 C 0,8 km/h
20.04.2011 21:00 14,6 C 57 % 1016,6 hPa 0,0 l/m 0,0 km/h N 6,1 C 14,6 C 0,8 km/h
20.04.2011 22:00 12,3 C 64 % 1016,7 hPa 0,0 l/m 0,0 km/h N 5,7 C 12,3 C 0,4 km/h
20.04.2011 23:00 10,8 C 69 % 1016,6 hPa 0,0 l/m 0,0 km/h N 5,2 C 10,8 C 0,0 km/h
21.04.2011 00:00 9,6 C 73 % 1016,8 hPa 0,0 l/m 0,0 km/h N 4,9 C 9,6 C 0,0 km/h
21.04.2011 01:00 9,1 C 75 % 1016,5 hPa 0,0 l/m 0,0 km/h N 4,8 C 9,1 C 0,0 km/h
21.04.2011 02:00 8,1 C 74 % 1016,3 hPa 0,0 l/m 0,0 km/h N 3,8 C 8,1 C 0,0 km/h
21.04.2011 03:00 6,7 C 78 % 1016,3 hPa 0,0 l/m 0,0 km/h N 3,0 C 6,7 C 0,0 km/h
21.04.2011 04:00 5,7 C 81 % 1016,2 hPa 0,0 l/m 0,0 km/h N 2,6 C 5,7 C 0,0 km/h
21.04.2011 05:00 5,1 C 82 % 1016,1 hPa 0,0 l/m 0,0 km/h N 2,3 C 5,1 C 0,0 km/h
21.04.2011 06:00 4,8 C 83 % 1016,4 hPa 0,0 l/m 0,0 km/h N 2,1 C 4,8 C 0,4 km/h
21.04.2011 07:00 6,3 C 82 % 1016,8 hPa 0,0 l/m 0,0 km/h N 3,5 C 6,3 C 0,8 km/h
21.04.2011 08:00 9,2 C 82 % 1016,9 hPa 0,0 l/m 0,2 km/h N 6,3 C 9,2 C 2,0 km/h
21.04.2011 09:00 13,1 C 69 % 1017,0 hPa 0,0 l/m 0,2 km/h N 7,4 C 13,1 C 2,4 km/h
21.04.2011 10:00 17,6 C 53 % 1016,9 hPa 0,0 l/m 1,0 km/h O 7,9 C 17,6 C 4,8 km/h
21.04.2011 11:00 19,8 C 49 % 1016,8 hPa 0,0 l/m 1,7 km/h O 8,7 C 19,8 C 5,6 km/h
21.04.2011 12:00 22,4 C 45 % 1016,3 hPa 0,0 l/m 1,5 km/h O-NO 9,7 C 22,4 C 5,6 km/h
21.04.2011 13:00 24,0 C 40 % 1015,7 hPa 0,0 l/m 2,2 km/h O-NO 9,4 C 24,0 C 7,2 km/h
21.04.2011 14:00 25,4 C 35 % 1015,2 hPa 0,0 l/m 2,0 km/h O 8,6 C 25,4 C 8,4 km/h
21.04.2011 15:00 25,1 C 35 % 1014,7 hPa 0,0 l/m 2,7 km/h O 8,5 C 25,1 C 8,4 km/h
21.04.2011 16:00 24,9 C 34 % 1014,3 hPa 0,0 l/m 2,8 km/h O-NO 7,8 C 24,9 C 8,4 km/h
21.04.2011 17:00 24,2 C 35 % 1014,2 hPa 0,0 l/m 3,5 km/h O 7,5 C 24,2 C 8,9 km/h
21.04.2011 18:00 23,6 C 35 % 1013,9 hPa 0,0 l/m 2,0 km/h O 7,1 C 23,6 C 6,8 km/h
21.04.2011 19:00 22,3 C 38 % 1014,0 hPa 0,0 l/m 0,3 km/h N 7,3 C 22,3 C 2,4 km/h
21.04.2011 20:00 19,4 C 47 % 1014,2 hPa 0,0 l/m 0,0 km/h N 7,8 C 19,4 C 0,0 km/h
21.04.2011 21:00 16,0 C 57 % 1014,5 hPa 0,0 l/m 0,0 km/h N 7,6 C 16,0 C 0,0 km/h
21.04.2011 22:00 13,5 C 66 % 1014,5 hPa 0,0 l/m 0,0 km/h N 7,3 C 13,5 C 0,0 km/h
21.04.2011 23:00 11,9 C 71 % 1014,4 hPa 0,0 l/m 0,0 km/h N 6,8 C 11,9 C 0,0 km/h
22.04.2011 00:00 10,5 C 75 % 1014,3 hPa 0,0 l/m 0,0 km/h N 6,3 C 10,5 C 0,0 km/h
22.04.2011 01:00 9,3 C 78 % 1014,1 hPa 0,0 l/m 0,0 km/h N 5,6 C 9,3 C 0,0 km/h
22.04.2011 02:00 8,4 C 80 % 1013,8 hPa 0,0 l/m 0,0 km/h N 5,2 C 8,4 C 0,0 km/h
22.04.2011 03:00 7,5 C 81 % 1013,8 hPa 0,0 l/m 0,0 km/h N 4,5 C 7,5 C 0,0 km/h
22.04.2011 04:00 6,9 C 82 % 1013,9 hPa 0,0 l/m 0,0 km/h N 4,1 C 6,9 C 0,0 km/h
22.04.2011 05:00 6,3 C 83 % 1013,9 hPa 0,0 l/m 0,0 km/h N 3,6 C 6,3 C 0,0 km/h
22.04.2011 06:00 6,0 C 83 % 1014,3 hPa 0,0 l/m 0,0 km/h N 3,3 C 6,0 C 0,0 km/h
22.04.2011 07:00 7,3 C 82 % 1014,6 hPa 0,0 l/m 0,0 km/h N 4,4 C 7,3 C 0,0 km/h
22.04.2011 08:00 10,5 C 78 % 1014,7 hPa 0,0 l/m 0,1 km/h N 6,9 C 10,5 C 1,2 km/h
22.04.2011 09:00 13,7 C 67 % 1014,4 hPa 0,0 l/m 0,5 km/h N 7,6 C 13,7 C 3,6 km/h
22.04.2011 10:00 17,3 C 54 % 1014,3 hPa 0,0 l/m 1,1 km/h O 8,0 C 17,3 C 4,4 km/h
22.04.2011 11:00 20,2 C 48 % 1013,8 hPa 0,0 l/m 1,7 km/h O-NO 8,8 C 20,2 C 6,0 km/h
22.04.2011 12:00 23,3 C 38 % 1013,1 hPa 0,0 l/m 2,4 km/h S 8,2 C 23,3 C 8,9 km/h
22.04.2011 13:00 24,5 C 36 % 1012,5 hPa 0,0 l/m 3,8 km/h O 8,5 C 24,5 C 12,9 km/h
22.04.2011 14:00 24,7 C 35 % 1012,2 hPa 0,0 l/m 4,2 km/h O-SO 8,0 C 24,7 C 12,1 km/h
22.04.2011 15:00 25,8 C 31 % 1011,6 hPa 0,0 l/m 3,1 km/h O 7,4 C 25,8 C 10,9 km/h
22.04.2011 16:00 26,0 C 31 % 1011,2 hPa 0,0 l/m 2,8 km/h O 7,3 C 26,0 C 12,9 km/h
22.04.2011 17:00 24,7 C 32 % 1011,1 hPa 0,0 l/m 3,8 km/h O 6,6 C 24,7 C 10,9 km/h
22.04.2011 18:00 23,7 C 33 % 1011,1 hPa 0,0 l/m 2,6 km/h O-SO 6,6 C 23,7 C 7,6 km/h
22.04.2011 19:00 22,3 C 36 % 1011,2 hPa 0,0 l/m 0,9 km/h O 6,4 C 22,3 C 3,6 km/h
22.04.2011 20:00 20,4 C 42 % 1011,6 hPa 0,0 l/m 0,0 km/h N 6,9 C 20,4 C 0,4 km/h
22.04.2011 21:00 17,1 C 52 % 1012,0 hPa 0,0 l/m 0,0 km/h N 7,0 C 17,1 C 0,0 km/h
22.04.2011 22:00 14,0 C 61 % 1012,1 hPa 0,0 l/m 0,0 km/h N 6,5 C 14,0 C 0,0 km/h
22.04.2011 23:00 12,1 C 67 % 1012,2 hPa 0,0 l/m 0,0 km/h N 6,2 C 12,1 C 0,0 km/h
23.04.2011 00:00 10,7 C 73 % 1012,2 hPa 0,0 l/m 0,0 km/h N 6,0 C 10,7 C 0,0 km/h
23.04.2011 01:00 9,4 C 76 % 1012,2 hPa 0,0 l/m 0,0 km/h N 5,3 C 9,4 C 0,0 km/h
23.04.2011 02:00 8,4 C 79 % 1012,0 hPa 0,0 l/m 0,0 km/h N 5,0 C 8,4 C 0,0 km/h
23.04.2011 03:00 7,6 C 80 % 1011,9 hPa 0,0 l/m 0,0 km/h N 4,4 C 7,6 C 0,0 km/h
23.04.2011 04:00 6,8 C 82 % 1011,8 hPa 0,0 l/m 0,0 km/h N 3,8 C 6,8 C 0,0 km/h
23.04.2011 05:00 6,1 C 83 % 1011,7 hPa 0,0 l/m 0,0 km/h N 3,3 C 6,1 C 0,0 km/h
23.04.2011 06:00 5,8 C 83 % 1011,9 hPa 0,0 l/m 0,0 km/h N 3,2 C 5,8 C 0,4 km/h
23.04.2011 07:00 7,1 C 82 % 1012,1 hPa 0,0 l/m 0,0 km/h N 4,2 C 7,1 C 0,0 km/h
23.04.2011 08:00 11,2 C 80 % 1012,2 hPa 0,0 l/m 0,6 km/h O-NO 7,8 C 11,2 C 2,8 km/h
23.04.2011 09:00 14,6 C 65 % 1012,3 hPa 0,0 l/m 0,7 km/h N 8,1 C 14,6 C 3,6 km/h
23.04.2011 10:00 18,9 C 54 % 1012,0 hPa 0,0 l/m 0,5 km/h N 9,4 C 18,9 C 5,2 km/h
23.04.2011 11:00 23,4 C 43 % 1011,4 hPa 0,0 l/m 1,7 km/h O 9,9 C 23,4 C 8,8 km/h
23.04.2011 12:00 25,6 C 33 % 1010,8 hPa 0,0 l/m 5,1 km/h O 8,0 C 25,5 C 21,7 km/h
23.04.2011 13:00 26,8 C 29 % 1010,5 hPa 0,0 l/m 7,5 km/h O 7,1 C 26,4 C 27,4 km/h
23.04.2011 14:00 27,4 C 27 % 1010,3 hPa 0,0 l/m 5,8 km/h S 6,7 C 27,3 C 26,5 km/h
23.04.2011 15:00 27,4 C 27 % 1010,1 hPa 0,0 l/m 5,4 km/h O 6,4 C 27,4 C 21,7 km/h
23.04.2011 16:00 27,6 C 25 % 1009,9 hPa 0,0 l/m 4,0 km/h S 5,8 C 27,6 C 20,1 km/h
23.04.2011 17:00 26,9 C 26 % 1009,9 hPa 0,0 l/m 4,1 km/h S-SO 5,9 C 26,9 C 18,9 km/h
23.04.2011 18:00 25,7 C 27 % 1009,9 hPa 0,0 l/m 3,1 km/h S-SO 5,2 C 25,7 C 17,7 km/h
23.04.2011 19:00 23,5 C 31 % 1010,2 hPa 0,0 l/m 0,8 km/h N 5,2 C 23,5 C 6,4 km/h
23.04.2011 20:00 21,0 C 36 % 1010,8 hPa 0,0 l/m 0,0 km/h N 5,4 C 21,0 C 1,6 km/h
23.04.2011 21:00 17,3 C 46 % 1011,2 hPa 0,0 l/m 0,0 km/h N 5,5 C 17,3 C 0,0 km/h
23.04.2011 22:00 14,2 C 56 % 1011,0 hPa 0,0 l/m 0,0 km/h N 5,5 C 14,2 C 0,0 km/h
23.04.2011 23:00 12,7 C 61 % 1010,8 hPa 0,0 l/m 0,0 km/h N 5,3 C 12,7 C 0,0 km/h
24.04.2011 00:00 12,3 C 62 % 1010,6 hPa 0,0 l/m 0,0 km/h N 5,1 C 12,3 C 0,0 km/h
24.04.2011 01:00 12,3 C 61 % 1010,5 hPa 0,0 l/m 0,0 km/h N 4,9 C 12,3 C 0,0 km/h
24.04.2011 02:00 11,1 C 64 % 1010,3 hPa 0,0 l/m 0,0 km/h N 4,6 C 11,1 C 0,0 km/h
24.04.2011 03:00 9,5 C 70 % 1010,3 hPa 0,0 l/m 0,0 km/h N 4,2 C 9,5 C 0,0 km/h
24.04.2011 04:00 8,3 C 75 % 1010,6 hPa 0,0 l/m 0,0 km/h N 4,0 C 8,3 C 0,0 km/h
24.04.2011 05:00 7,6 C 79 % 1010,7 hPa 0,0 l/m 0,0 km/h N 4,1 C 7,6 C 0,0 km/h
24.04.2011 06:00 7,2 C 81 % 1011,2 hPa 0,0 l/m 0,0 km/h N 4,1 C 7,2 C 0,0 km/h
24.04.2011 07:00 8,2 C 82 % 1011,8 hPa 0,0 l/m 0,0 km/h N 5,3 C 8,2 C 0,0 km/h
24.04.2011 08:00 10,6 C 77 % 1012,3 hPa 0,0 l/m 0,0 km/h N 6,8 C 10,6 C 0,0 km/h
24.04.2011 09:00 14,2 C 64 % 1012,7 hPa 0,0 l/m 1,6 km/h N-NO 7,5 C 14,2 C 6,4 km/h
24.04.2011 10:00 17,3 C 56 % 1012,9 hPa 0,0 l/m 2,5 km/h NO 8,4 C 17,3 C 8,1 km/h
24.04.2011 11:00 19,2 C 52 % 1013,0 hPa 0,0 l/m 3,2 km/h NO 9,0 C 19,2 C 8,0 km/h
24.04.2011 12:00 21,1 C 48 % 1013,1 hPa 0,0 l/m 3,2 km/h N-NO 9,5 C 21,1 C 8,9 km/h
24.04.2011 13:00 24,1 C 43 % 1013,0 hPa 0,0 l/m 4,8 km/h NO 10,6 C 24,1 C 12,9 km/h
24.04.2011 14:00 25,0 C 40 % 1013,0 hPa 0,0 l/m 3,2 km/h NO 10,4 C 25,0 C 11,3 km/h
24.04.2011 15:00 24,8 C 40 % 1012,8 hPa 0,0 l/m 5,6 km/h NO 10,0 C 24,8 C 12,9 km/h
24.04.2011 16:00 25,8 C 38 % 1012,5 hPa 0,0 l/m 4,0 km/h N-NO 10,3 C 25,8 C 10,5 km/h
24.04.2011 17:00 25,0 C 39 % 1012,5 hPa 0,0 l/m 2,4 km/h N-NO 9,9 C 25,0 C 8,1 km/h
24.04.2011 18:00 22,8 C 43 % 1013,2 hPa 0,0 l/m 2,4 km/h N-NO 9,4 C 22,8 C 12,0 km/h
24.04.2011 19:00 18,8 C 48 % 1014,4 hPa 0,0 l/m 6,4 km/h NO 7,5 C 18,4 C 19,3 km/h
24.04.2011 20:00 16,5 C 64 % 1015,4 hPa 0,5 l/m 3,2 km/h N-NO 9,4 C 16,5 C 11,3 km/h
24.04.2011 21:00 14,1 C 79 % 1015,8 hPa 0,0 l/m 1,6 km/h S 10,4 C 14,1 C 9,6 km/h
24.04.2011 22:00 13,3 C 80 % 1016,6 hPa 0,0 l/m 0,0 km/h S 9,9 C 13,3 C 0,8 km/h
24.04.2011 23:00 12,7 C 82 % 1016,3 hPa 0,0 l/m 0,8 km/h N 9,7 C 12,7 C 4,8 km/h
Min-Datum _ 19.04.11 23.04.11 23.04.11 - 18.04.11 - 18.04.11 19.04.11 18.04.11
_ Min-Zeit 06:15 16:00 16:45 - 00:00 - 06:00 06:15 00:00
Minimum _ 3,6 C 25 % 1009,8 hPa - 0,0 km/h - 0,2 C 3,6 C 0,0 km/h
Max-Datum _ 23.04.11 19.04.11 18.04.11 24.04.11 23.04.11 - 24.04.11 23.04.11 23.04.11
_ Max-Zeit 14:45 07:30 08:30 20:30 13:30 - 13:30 16:00 13:15
Maximum _ 27,8 C 83 % 1024,5 hPa 0,5 l/m 9,5 km/h
O
- 10,8 C 27,7 C 32,2 km/h
S-SO
Durchschnitt _ 14,7 C 58 % 1015,7 hPa #0,5 l/m 1,2 km/h O 5,4 C 14,7 C 4,7 km/h